Location Sebastian, FL, US

ob KFLSEBAS1 190050Z AUTO 14000G05KT CLR 29/26 A2995 RMK SLPNO 

2018.09.19 0050 UTC
Wind from the SE (142 degrees) at Calm MPH ( KT) gusting to 6.0 MPH (5 KT)
Visibility    Mile(s)
Sky Conditions  clear
Temperature 84.10 F (29 C)
Dew Point 78.38 F (26 C)
Relative Humidity 83%
Pressure   29.95 in. Hg (1014 hPa)
Rain  0.00 in.
Daily Rain  in.

Station Name  Memory Makers, Inc.
Longitude, Latitude  -80.48, 27.8
Elevation 23
Station URL www.kflsebas1.com
Software Type VWS V15.00